sensor_id;sensor_type;location;lat;lon;timestamp;P1;durP1;ratioP1;P2;durP2;ratioP2
42904;SDS011;28550;51.228;4.528;2023-08-20T00:01:25;12.95;;;5.43;;
42904;SDS011;28550;51.228;4.528;2023-08-20T00:03:52;12.02;;;5.05;;
42904;SDS011;28550;51.228;4.528;2023-08-20T00:06:19;14.45;;;6.25;;
42904;SDS011;28550;51.228;4.528;2023-08-20T00:08:45;17.58;;;6.22;;
42904;SDS011;28550;51.228;4.528;2023-08-20T00:11:11;11.60;;;5.57;;
42904;SDS011;28550;51.228;4.528;2023-08-20T00:13:44;11.90;;;5.53;;
42904;SDS011;28550;51.228;4.528;2023-08-20T00:16:10;15.40;;;5.85;;
42904;SDS011;28550;51.228;4.528;2023-08-20T00:18:40;14.02;;;6.28;;
42904;SDS011;28550;51.228;4.528;2023-08-20T00:21:06;11.40;;;4.90;;
42904;SDS011;28550;51.228;4.528;2023-08-20T00:23:33;15.85;;;5.05;;
42904;SDS011;28550;51.228;4.528;2023-08-20T00:26:03;10.07;;;4.90;;
42904;SDS011;28550;51.228;4.528;2023-08-20T00:28:29;13.90;;;5.40;;
42904;SDS011;28550;51.228;4.528;2023-08-20T00:30:55;11.82;;;5.78;;
42904;SDS011;28550;51.228;4.528;2023-08-20T00:33:21;13.35;;;5.13;;
42904;SDS011;28550;51.228;4.528;2023-08-20T00:35:51;10.65;;;5.30;;
42904;SDS011;28550;51.228;4.528;2023-08-20T00:38:16;16.40;;;5.25;;
42904;SDS011;28550;51.228;4.528;2023-08-20T00:40:42;18.95;;;5.00;;
42904;SDS011;28550;51.228;4.528;2023-08-20T00:43:08;12.57;;;4.75;;
42904;SDS011;28550;51.228;4.528;2023-08-20T00:45:34;8.88;;;4.55;;
42904;SDS011;28550;51.228;4.528;2023-08-20T00:48:00;11.23;;;4.53;;
42904;SDS011;28550;51.228;4.528;2023-08-20T00:50:25;13.30;;;5.07;;
42904;SDS011;28550;51.228;4.528;2023-08-20T00:52:51;12.63;;;5.20;;
42904;SDS011;28550;51.228;4.528;2023-08-20T00:55:17;15.15;;;4.50;;
42904;SDS011;28550;51.228;4.528;2023-08-20T00:57:43;12.23;;;4.80;;
42904;SDS011;28550;51.228;4.528;2023-08-20T01:00:09;13.38;;;5.38;;
42904;SDS011;28550;51.228;4.528;2023-08-20T01:02:36;10.63;;;4.63;;
42904;SDS011;28550;51.228;4.528;2023-08-20T01:05:04;13.60;;;5.47;;
42904;SDS011;28550;51.228;4.528;2023-08-20T01:13:00;8.98;;;5.15;;
42904;SDS011;28550;51.228;4.528;2023-08-20T01:15:27;8.90;;;4.28;;
42904;SDS011;28550;51.228;4.528;2023-08-20T01:17:53;12.20;;;4.95;;
42904;SDS011;28550;51.228;4.528;2023-08-20T01:20:22;14.15;;;4.68;;
42904;SDS011;28550;51.228;4.528;2023-08-20T01:23:38;12.15;;;4.72;;
42904;SDS011;28550;51.228;4.528;2023-08-20T01:28:52;12.00;;;4.80;;
42904;SDS011;28550;51.228;4.528;2023-08-20T01:31:19;13.95;;;4.50;;
42904;SDS011;28550;51.228;4.528;2023-08-20T01:33:45;9.52;;;4.80;;
42904;SDS011;28550;51.228;4.528;2023-08-20T01:36:11;11.68;;;4.82;;
42904;SDS011;28550;51.228;4.528;2023-08-20T01:38:37;8.27;;;4.40;;
42904;SDS011;28550;51.228;4.528;2023-08-20T01:41:03;8.93;;;4.72;;
42904;SDS011;28550;51.228;4.528;2023-08-20T01:43:31;10.15;;;4.90;;
42904;SDS011;28550;51.228;4.528;2023-08-20T01:45:57;12.68;;;4.57;;
42904;SDS011;28550;51.228;4.528;2023-08-20T01:48:23;13.10;;;4.95;;
42904;SDS011;28550;51.228;4.528;2023-08-20T01:50:49;9.25;;;4.63;;
42904;SDS011;28550;51.228;4.528;2023-08-20T01:53:15;16.10;;;6.05;;
42904;SDS011;28550;51.228;4.528;2023-08-20T01:55:40;14.73;;;5.47;;
42904;SDS011;28550;51.228;4.528;2023-08-20T01:58:06;14.98;;;5.35;;
42904;SDS011;28550;51.228;4.528;2023-08-20T02:00:32;13.98;;;5.18;;
42904;SDS011;28550;51.228;4.528;2023-08-20T02:02:58;12.70;;;5.05;;
42904;SDS011;28550;51.228;4.528;2023-08-20T02:05:24;10.93;;;4.70;;
42904;SDS011;28550;51.228;4.528;2023-08-20T02:07:50;13.23;;;5.20;;
42904;SDS011;28550;51.228;4.528;2023-08-20T02:10:16;8.63;;;5.05;;
42904;SDS011;28550;51.228;4.528;2023-08-20T02:12:42;14.48;;;6.05;;
42904;SDS011;28550;51.228;4.528;2023-08-20T02:15:11;13.35;;;5.05;;
42904;SDS011;28550;51.228;4.528;2023-08-20T02:17:36;15.90;;;4.40;;
42904;SDS011;28550;51.228;4.528;2023-08-20T02:20:03;11.63;;;4.93;;
42904;SDS011;28550;51.228;4.528;2023-08-20T02:22:29;14.10;;;5.65;;
42904;SDS011;28550;51.228;4.528;2023-08-20T02:24:55;15.45;;;5.32;;
42904;SDS011;28550;51.228;4.528;2023-08-20T02:27:21;14.45;;;5.88;;
42904;SDS011;28550;51.228;4.528;2023-08-20T02:29:46;15.27;;;6.00;;
42904;SDS011;28550;51.228;4.528;2023-08-20T02:32:12;15.07;;;6.38;;
42904;SDS011;28550;51.228;4.528;2023-08-20T02:34:38;12.82;;;5.78;;
42904;SDS011;28550;51.228;4.528;2023-08-20T02:37:04;14.98;;;5.55;;
42904;SDS011;28550;51.228;4.528;2023-08-20T02:39:29;14.80;;;7.35;;
42904;SDS011;28550;51.228;4.528;2023-08-20T02:41:56;12.95;;;5.35;;
42904;SDS011;28550;51.228;4.528;2023-08-20T02:44:22;12.95;;;5.25;;
42904;SDS011;28550;51.228;4.528;2023-08-20T02:46:48;13.20;;;5.47;;
42904;SDS011;28550;51.228;4.528;2023-08-20T02:49:14;11.73;;;5.80;;
42904;SDS011;28550;51.228;4.528;2023-08-20T02:51:42;14.43;;;5.60;;
42904;SDS011;28550;51.228;4.528;2023-08-20T02:54:08;15.85;;;6.75;;
42904;SDS011;28550;51.228;4.528;2023-08-20T02:56:34;12.73;;;5.57;;
42904;SDS011;28550;51.228;4.528;2023-08-20T02:59:00;15.52;;;5.75;;
42904;SDS011;28550;51.228;4.528;2023-08-20T03:01:27;14.63;;;5.82;;
42904;SDS011;28550;51.228;4.528;2023-08-20T03:03:53;12.00;;;6.78;;
42904;SDS011;28550;51.228;4.528;2023-08-20T03:06:18;11.82;;;6.07;;
42904;SDS011;28550;51.228;4.528;2023-08-20T03:08:45;14.55;;;6.13;;
42904;SDS011;28550;51.228;4.528;2023-08-20T03:11:11;16.00;;;6.50;;
42904;SDS011;28550;51.228;4.528;2023-08-20T03:13:36;13.50;;;6.20;;
42904;SDS011;28550;51.228;4.528;2023-08-20T03:16:02;16.27;;;6.38;;
42904;SDS011;28550;51.228;4.528;2023-08-20T03:18:28;12.80;;;6.10;;
42904;SDS011;28550;51.228;4.528;2023-08-20T03:20:54;18.45;;;6.20;;
42904;SDS011;28550;51.228;4.528;2023-08-20T03:23:23;20.00;;;6.72;;
42904;SDS011;28550;51.228;4.528;2023-08-20T03:25:49;24.65;;;7.35;;
42904;SDS011;28550;51.228;4.528;2023-08-20T03:28:17;14.32;;;5.82;;
42904;SDS011;28550;51.228;4.528;2023-08-20T03:30:46;13.63;;;5.72;;
42904;SDS011;28550;51.228;4.528;2023-08-20T03:33:12;17.77;;;6.85;;
42904;SDS011;28550;51.228;4.528;2023-08-20T03:35:38;12.30;;;6.78;;
42904;SDS011;28550;51.228;4.528;2023-08-20T03:38:07;17.90;;;6.68;;
42904;SDS011;28550;51.228;4.528;2023-08-20T03:40:32;12.50;;;6.18;;
42904;SDS011;28550;51.228;4.528;2023-08-20T03:42:58;14.80;;;6.40;;
42904;SDS011;28550;51.228;4.528;2023-08-20T03:45:25;20.77;;;6.78;;
42904;SDS011;28550;51.228;4.528;2023-08-20T03:47:54;16.30;;;6.97;;
42904;SDS011;28550;51.228;4.528;2023-08-20T03:50:20;15.00;;;6.60;;
42904;SDS011;28550;51.228;4.528;2023-08-20T03:52:46;16.50;;;6.63;;
42904;SDS011;28550;51.228;4.528;2023-08-20T03:55:11;9.93;;;6.10;;
42904;SDS011;28550;51.228;4.528;2023-08-20T03:57:37;15.63;;;6.35;;
42904;SDS011;28550;51.228;4.528;2023-08-20T04:00:03;15.30;;;7.10;;
42904;SDS011;28550;51.228;4.528;2023-08-20T04:02:29;10.85;;;6.82;;
42904;SDS011;28550;51.228;4.528;2023-08-20T04:04:57;16.30;;;6.57;;
42904;SDS011;28550;51.228;4.528;2023-08-20T04:07:25;15.00;;;6.85;;
42904;SDS011;28550;51.228;4.528;2023-08-20T04:09:53;15.07;;;6.88;;
42904;SDS011;28550;51.228;4.528;2023-08-20T04:12:20;15.80;;;7.25;;
42904;SDS011;28550;51.228;4.528;2023-08-20T04:14:46;15.85;;;6.25;;
42904;SDS011;28550;51.228;4.528;2023-08-20T04:17:12;15.85;;;6.93;;
42904;SDS011;28550;51.228;4.528;2023-08-20T04:19:38;17.13;;;7.40;;
42904;SDS011;28550;51.228;4.528;2023-08-20T04:22:03;19.70;;;6.75;;
42904;SDS011;28550;51.228;4.528;2023-08-20T04:24:31;17.15;;;6.78;;
42904;SDS011;28550;51.228;4.528;2023-08-20T04:26:57;21.55;;;7.28;;
42904;SDS011;28550;51.228;4.528;2023-08-20T04:29:23;17.40;;;7.30;;
42904;SDS011;28550;51.228;4.528;2023-08-20T04:31:48;12.05;;;6.88;;
42904;SDS011;28550;51.228;4.528;2023-08-20T04:34:15;15.95;;;6.65;;
42904;SDS011;28550;51.228;4.528;2023-08-20T04:36:41;11.88;;;7.85;;
42904;SDS011;28550;51.228;4.528;2023-08-20T04:39:10;17.77;;;7.15;;
42904;SDS011;28550;51.228;4.528;2023-08-20T04:41:38;19.17;;;7.28;;
42904;SDS011;28550;51.228;4.528;2023-08-20T04:44:06;14.00;;;6.72;;
42904;SDS011;28550;51.228;4.528;2023-08-20T04:46:32;16.30;;;6.70;;
42904;SDS011;28550;51.228;4.528;2023-08-20T04:48:58;16.70;;;6.82;;
42904;SDS011;28550;51.228;4.528;2023-08-20T04:51:24;14.98;;;6.63;;
42904;SDS011;28550;51.228;4.528;2023-08-20T04:53:52;10.63;;;6.32;;
42904;SDS011;28550;51.228;4.528;2023-08-20T04:56:20;13.75;;;7.43;;
42904;SDS011;28550;51.228;4.528;2023-08-20T04:58:46;16.20;;;6.07;;
42904;SDS011;28550;51.228;4.528;2023-08-20T05:01:12;14.45;;;6.70;;
42904;SDS011;28550;51.228;4.528;2023-08-20T05:03:40;11.27;;;6.28;;
42904;SDS011;28550;51.228;4.528;2023-08-20T05:06:05;12.25;;;6.72;;
42904;SDS011;28550;51.228;4.528;2023-08-20T05:08:31;16.73;;;6.78;;
42904;SDS011;28550;51.228;4.528;2023-08-20T05:10:57;16.00;;;6.85;;
42904;SDS011;28550;51.228;4.528;2023-08-20T05:13:28;15.80;;;6.32;;
42904;SDS011;28550;51.228;4.528;2023-08-20T05:15:55;11.93;;;6.50;;
42904;SDS011;28550;51.228;4.528;2023-08-20T05:18:20;11.85;;;6.03;;
42904;SDS011;28550;51.228;4.528;2023-08-20T05:20:46;11.52;;;6.03;;
42904;SDS011;28550;51.228;4.528;2023-08-20T05:23:13;11.50;;;6.72;;
42904;SDS011;28550;51.228;4.528;2023-08-20T05:25:39;16.02;;;6.20;;
42904;SDS011;28550;51.228;4.528;2023-08-20T05:28:04;15.18;;;6.18;;
42904;SDS011;28550;51.228;4.528;2023-08-20T05:30:30;13.35;;;6.15;;
42904;SDS011;28550;51.228;4.528;2023-08-20T05:32:56;8.77;;;5.70;;
42904;SDS011;28550;51.228;4.528;2023-08-20T05:35:22;15.82;;;6.55;;
42904;SDS011;28550;51.228;4.528;2023-08-20T05:37:48;12.77;;;6.38;;
42904;SDS011;28550;51.228;4.528;2023-08-20T05:40:13;17.40;;;6.55;;
42904;SDS011;28550;51.228;4.528;2023-08-20T05:42:39;12.93;;;5.93;;
42904;SDS011;28550;51.228;4.528;2023-08-20T05:45:05;11.63;;;6.57;;
42904;SDS011;28550;51.228;4.528;2023-08-20T05:47:31;12.00;;;6.63;;
42904;SDS011;28550;51.228;4.528;2023-08-20T05:49:59;12.48;;;6.30;;
42904;SDS011;28550;51.228;4.528;2023-08-20T05:52:28;11.35;;;6.18;;
42904;SDS011;28550;51.228;4.528;2023-08-20T05:54:56;13.73;;;6.57;;
42904;SDS011;28550;51.228;4.528;2023-08-20T05:57:22;20.95;;;6.43;;
42904;SDS011;28550;51.228;4.528;2023-08-20T05:59:51;15.07;;;6.47;;
42904;SDS011;28550;51.228;4.528;2023-08-20T06:02:16;19.20;;;6.57;;
42904;SDS011;28550;51.228;4.528;2023-08-20T06:04:45;13.10;;;5.95;;
42904;SDS011;28550;51.228;4.528;2023-08-20T06:07:11;13.20;;;5.95;;
42904;SDS011;28550;51.228;4.528;2023-08-20T06:09:37;15.80;;;5.90;;
42904;SDS011;28550;51.228;4.528;2023-08-20T06:12:02;16.80;;;6.90;;
42904;SDS011;28550;51.228;4.528;2023-08-20T06:14:28;11.13;;;6.43;;
42904;SDS011;28550;51.228;4.528;2023-08-20T06:16:59;15.65;;;6.35;;
42904;SDS011;28550;51.228;4.528;2023-08-20T06:19:33;11.88;;;5.65;;
42904;SDS011;28550;51.228;4.528;2023-08-20T06:24:24;12.48;;;5.18;;
42904;SDS011;28550;51.228;4.528;2023-08-20T06:26:51;8.07;;;5.80;;
42904;SDS011;28550;51.228;4.528;2023-08-20T06:29:17;14.93;;;5.63;;
42904;SDS011;28550;51.228;4.528;2023-08-20T06:31:43;12.10;;;4.85;;
42904;SDS011;28550;51.228;4.528;2023-08-20T06:34:09;8.48;;;4.60;;
42904;SDS011;28550;51.228;4.528;2023-08-20T06:36:35;10.15;;;4.35;;
42904;SDS011;28550;51.228;4.528;2023-08-20T06:39:01;11.15;;;3.90;;
42904;SDS011;28550;51.228;4.528;2023-08-20T06:41:27;12.15;;;4.50;;
42904;SDS011;28550;51.228;4.528;2023-08-20T06:43:52;11.43;;;3.92;;
42904;SDS011;28550;51.228;4.528;2023-08-20T06:46:26;10.77;;;4.10;;
42904;SDS011;28550;51.228;4.528;2023-08-20T06:48:51;12.13;;;4.07;;
42904;SDS011;28550;51.228;4.528;2023-08-20T06:51:20;12.38;;;4.47;;
42904;SDS011;28550;51.228;4.528;2023-08-20T06:53:47;5.80;;;3.25;;
42904;SDS011;28550;51.228;4.528;2023-08-20T06:56:13;14.32;;;4.55;;
42904;SDS011;28550;51.228;4.528;2023-08-20T06:58:39;13.77;;;4.00;;
42904;SDS011;28550;51.228;4.528;2023-08-20T07:01:06;10.30;;;3.03;;
42904;SDS011;28550;51.228;4.528;2023-08-20T07:03:33;8.02;;;2.92;;
42904;SDS011;28550;51.228;4.528;2023-08-20T07:05:59;6.60;;;3.30;;
42904;SDS011;28550;51.228;4.528;2023-08-20T07:08:24;7.93;;;3.47;;
42904;SDS011;28550;51.228;4.528;2023-08-20T07:10:53;10.43;;;2.90;;
42904;SDS011;28550;51.228;4.528;2023-08-20T07:13:18;9.73;;;3.25;;
42904;SDS011;28550;51.228;4.528;2023-08-20T07:15:50;8.05;;;3.35;;
42904;SDS011;28550;51.228;4.528;2023-08-20T07:18:16;10.15;;;3.47;;
42904;SDS011;28550;51.228;4.528;2023-08-20T07:20:48;6.25;;;2.20;;
42904;SDS011;28550;51.228;4.528;2023-08-20T07:23:17;8.60;;;3.00;;
42904;SDS011;28550;51.228;4.528;2023-08-20T07:25:43;7.10;;;2.90;;
42904;SDS011;28550;51.228;4.528;2023-08-20T07:28:12;6.93;;;2.30;;
42904;SDS011;28550;51.228;4.528;2023-08-20T07:30:38;10.52;;;2.50;;
42904;SDS011;28550;51.228;4.528;2023-08-20T07:33:06;9.00;;;2.50;;
42904;SDS011;28550;51.228;4.528;2023-08-20T07:35:32;9.13;;;3.10;;
42904;SDS011;28550;51.228;4.528;2023-08-20T07:38:00;7.18;;;2.92;;
42904;SDS011;28550;51.228;4.528;2023-08-20T07:40:34;6.07;;;2.22;;
42904;SDS011;28550;51.228;4.528;2023-08-20T07:43:01;4.13;;;2.15;;
42904;SDS011;28550;51.228;4.528;2023-08-20T07:45:27;6.47;;;2.17;;
42904;SDS011;28550;51.228;4.528;2023-08-20T07:47:52;5.60;;;2.65;;
42904;SDS011;28550;51.228;4.528;2023-08-20T07:50:18;7.63;;;2.65;;
42904;SDS011;28550;51.228;4.528;2023-08-20T07:52:47;6.75;;;2.50;;
42904;SDS011;28550;51.228;4.528;2023-08-20T07:55:12;7.07;;;2.13;;
42904;SDS011;28550;51.228;4.528;2023-08-20T07:57:38;5.05;;;1.92;;
42904;SDS011;28550;51.228;4.528;2023-08-20T08:00:05;11.13;;;2.28;;
42904;SDS011;28550;51.228;4.528;2023-08-20T08:02:31;4.60;;;2.05;;
42904;SDS011;28550;51.228;4.528;2023-08-20T08:04:57;5.38;;;1.80;;
42904;SDS011;28550;51.228;4.528;2023-08-20T08:07:23;5.00;;;1.90;;
42904;SDS011;28550;51.228;4.528;2023-08-20T08:09:48;5.32;;;2.17;;
42904;SDS011;28550;51.228;4.528;2023-08-20T08:12:14;6.65;;;1.98;;
42904;SDS011;28550;51.228;4.528;2023-08-20T08:14:40;4.18;;;2.25;;
42904;SDS011;28550;51.228;4.528;2023-08-20T08:17:09;6.03;;;2.00;;
42904;SDS011;28550;51.228;4.528;2023-08-20T08:19:34;4.32;;;1.92;;
42904;SDS011;28550;51.228;4.528;2023-08-20T08:22:00;2.97;;;1.60;;
42904;SDS011;28550;51.228;4.528;2023-08-20T08:24:30;6.50;;;2.03;;
42904;SDS011;28550;51.228;4.528;2023-08-20T08:26:56;8.02;;;1.80;;
42904;SDS011;28550;51.228;4.528;2023-08-20T08:29:22;4.93;;;1.52;;
42904;SDS011;28550;51.228;4.528;2023-08-20T08:31:47;5.75;;;1.58;;
42904;SDS011;28550;51.228;4.528;2023-08-20T08:34:13;8.77;;;2.17;;
42904;SDS011;28550;51.228;4.528;2023-08-20T08:36:39;4.43;;;1.70;;
42904;SDS011;28550;51.228;4.528;2023-08-20T08:39:08;6.63;;;1.55;;
42904;SDS011;28550;51.228;4.528;2023-08-20T08:41:38;8.70;;;1.80;;
42904;SDS011;28550;51.228;4.528;2023-08-20T08:44:09;5.55;;;1.75;;
42904;SDS011;28550;51.228;4.528;2023-08-20T08:46:35;4.30;;;1.90;;
42904;SDS011;28550;51.228;4.528;2023-08-20T08:49:03;3.33;;;1.42;;
42904;SDS011;28550;51.228;4.528;2023-08-20T08:51:30;3.95;;;1.50;;
42904;SDS011;28550;51.228;4.528;2023-08-20T08:54:01;3.13;;;1.20;;
42904;SDS011;28550;51.228;4.528;2023-08-20T08:56:27;3.65;;;1.27;;
42904;SDS011;28550;51.228;4.528;2023-08-20T08:58:53;3.42;;;1.40;;
42904;SDS011;28550;51.228;4.528;2023-08-20T09:01:19;4.22;;;1.75;;
42904;SDS011;28550;51.228;4.528;2023-08-20T09:03:46;4.00;;;1.48;;
42904;SDS011;28550;51.228;4.528;2023-08-20T09:06:22;5.43;;;1.10;;
42904;SDS011;28550;51.228;4.528;2023-08-20T09:08:49;3.50;;;1.20;;
42904;SDS011;28550;51.228;4.528;2023-08-20T09:11:14;3.50;;;1.30;;
42904;SDS011;28550;51.228;4.528;2023-08-20T09:13:41;3.53;;;1.02;;
42904;SDS011;28550;51.228;4.528;2023-08-20T09:16:17;2.42;;;0.85;;
42904;SDS011;28550;51.228;4.528;2023-08-20T09:18:45;3.73;;;1.20;;
42904;SDS011;28550;51.228;4.528;2023-08-20T09:21:12;5.75;;;2.05;;
42904;SDS011;28550;51.228;4.528;2023-08-20T09:23:39;3.58;;;1.70;;
42904;SDS011;28550;51.228;4.528;2023-08-20T09:26:06;5.95;;;1.85;;
42904;SDS011;28550;51.228;4.528;2023-08-20T09:28:42;4.68;;;1.55;;
42904;SDS011;28550;51.228;4.528;2023-08-20T09:31:09;3.15;;;1.55;;
42904;SDS011;28550;51.228;4.528;2023-08-20T09:33:35;3.53;;;1.45;;
42904;SDS011;28550;51.228;4.528;2023-08-20T09:36:02;2.85;;;1.75;;
42904;SDS011;28550;51.228;4.528;2023-08-20T09:38:29;3.28;;;1.40;;
42904;SDS011;28550;51.228;4.528;2023-08-20T09:41:01;4.05;;;1.52;;
42904;SDS011;28550;51.228;4.528;2023-08-20T09:43:30;3.60;;;1.70;;
42904;SDS011;28550;51.228;4.528;2023-08-20T09:45:58;5.15;;;1.55;;
42904;SDS011;28550;51.228;4.528;2023-08-20T09:48:27;4.72;;;1.50;;
42904;SDS011;28550;51.228;4.528;2023-08-20T09:51:01;6.43;;;1.75;;
42904;SDS011;28550;51.228;4.528;2023-08-20T09:53:38;2.97;;;1.33;;
42904;SDS011;28550;51.228;4.528;2023-08-20T09:56:10;5.22;;;1.52;;
42904;SDS011;28550;51.228;4.528;2023-08-20T09:58:59;5.13;;;1.65;;
42904;SDS011;28550;51.228;4.528;2023-08-20T10:01:26;4.45;;;1.83;;
42904;SDS011;28550;51.228;4.528;2023-08-20T10:03:53;3.88;;;1.95;;
42904;SDS011;28550;51.228;4.528;2023-08-20T10:06:19;5.07;;;1.67;;
42904;SDS011;28550;51.228;4.528;2023-08-20T10:08:46;4.40;;;1.75;;
42904;SDS011;28550;51.228;4.528;2023-08-20T10:11:14;3.33;;;1.42;;
42904;SDS011;28550;51.228;4.528;2023-08-20T10:13:43;3.10;;;1.20;;
42904;SDS011;28550;51.228;4.528;2023-08-20T10:16:13;4.38;;;1.70;;
42904;SDS011;28550;51.228;4.528;2023-08-20T10:18:45;3.90;;;1.25;;
42904;SDS011;28550;51.228;4.528;2023-08-20T10:21:12;5.93;;;1.23;;
42904;SDS011;28550;51.228;4.528;2023-08-20T10:23:41;6.95;;;1.75;;
42904;SDS011;28550;51.228;4.528;2023-08-20T10:26:09;5.25;;;1.48;;
42904;SDS011;28550;51.228;4.528;2023-08-20T10:28:36;4.53;;;1.85;;
42904;SDS011;28550;51.228;4.528;2023-08-20T10:31:06;5.28;;;1.58;;
42904;SDS011;28550;51.228;4.528;2023-08-20T10:33:55;3.22;;;1.38;;
42904;SDS011;28550;51.228;4.528;2023-08-20T10:36:23;4.65;;;1.17;;
42904;SDS011;28550;51.228;4.528;2023-08-20T10:38:58;5.05;;;1.45;;
42904;SDS011;28550;51.228;4.528;2023-08-20T10:41:29;5.32;;;0.95;;
42904;SDS011;28550;51.228;4.528;2023-08-20T10:43:59;5.50;;;1.60;;
42904;SDS011;28550;51.228;4.528;2023-08-20T10:46:26;6.63;;;1.23;;
42904;SDS011;28550;51.228;4.528;2023-08-20T10:49:02;3.53;;;1.50;;
42904;SDS011;28550;51.228;4.528;2023-08-20T10:51:28;4.30;;;1.10;;
42904;SDS011;28550;51.228;4.528;2023-08-20T10:56:42;5.55;;;1.60;;
42904;SDS011;28550;51.228;4.528;2023-08-20T10:59:17;5.35;;;1.48;;
42904;SDS011;28550;51.228;4.528;2023-08-20T11:01:47;4.35;;;1.70;;
42904;SDS011;28550;51.228;4.528;2023-08-20T11:04:19;4.35;;;1.20;;
42904;SDS011;28550;51.228;4.528;2023-08-20T11:06:54;3.35;;;1.17;;
42904;SDS011;28550;51.228;4.528;2023-08-20T11:09:33;2.15;;;1.27;;
42904;SDS011;28550;51.228;4.528;2023-08-20T11:11:58;2.70;;;1.20;;
42904;SDS011;28550;51.228;4.528;2023-08-20T11:14:24;2.58;;;0.93;;
42904;SDS011;28550;51.228;4.528;2023-08-20T11:16:53;3.78;;;1.38;;
42904;SDS011;28550;51.228;4.528;2023-08-20T11:19:25;4.50;;;1.10;;
42904;SDS011;28550;51.228;4.528;2023-08-20T11:22:00;2.55;;;1.10;;
42904;SDS011;28550;51.228;4.528;2023-08-20T11:24:29;4.40;;;1.50;;
42904;SDS011;28550;51.228;4.528;2023-08-20T11:26:55;3.58;;;1.10;;
42904;SDS011;28550;51.228;4.528;2023-08-20T11:29:27;2.85;;;1.20;;
42904;SDS011;28550;51.228;4.528;2023-08-20T11:32:01;3.35;;;1.27;;
42904;SDS011;28550;51.228;4.528;2023-08-20T11:34:28;4.47;;;1.60;;
42904;SDS011;28550;51.228;4.528;2023-08-20T11:37:03;4.45;;;1.30;;
42904;SDS011;28550;51.228;4.528;2023-08-20T11:39:29;2.50;;;0.95;;
42904;SDS011;28550;51.228;4.528;2023-08-20T11:41:58;4.30;;;1.38;;
42904;SDS011;28550;51.228;4.528;2023-08-20T11:44:24;5.03;;;1.42;;
42904;SDS011;28550;51.228;4.528;2023-08-20T11:46:51;6.93;;;2.25;;
42904;SDS011;28550;51.228;4.528;2023-08-20T11:49:26;7.75;;;4.18;;
42904;SDS011;28550;51.228;4.528;2023-08-20T11:51:56;3.17;;;1.80;;
42904;SDS011;28550;51.228;4.528;2023-08-20T11:54:28;4.15;;;1.52;;
42904;SDS011;28550;51.228;4.528;2023-08-20T11:57:01;4.15;;;1.60;;
42904;SDS011;28550;51.228;4.528;2023-08-20T11:59:32;4.90;;;1.67;;
42904;SDS011;28550;51.228;4.528;2023-08-20T12:02:04;10.65;;;3.00;;
42904;SDS011;28550;51.228;4.528;2023-08-20T12:04:30;8.17;;;5.80;;
42904;SDS011;28550;51.228;4.528;2023-08-20T12:07:08;4.78;;;2.25;;
42904;SDS011;28550;51.228;4.528;2023-08-20T12:09:47;2.80;;;1.40;;
42904;SDS011;28550;51.228;4.528;2023-08-20T12:12:16;6.45;;;1.70;;
42904;SDS011;28550;51.228;4.528;2023-08-20T12:14:52;2.80;;;1.60;;
42904;SDS011;28550;51.228;4.528;2023-08-20T12:17:21;3.70;;;1.65;;
42904;SDS011;28550;51.228;4.528;2023-08-20T12:19:46;6.70;;;1.75;;
42904;SDS011;28550;51.228;4.528;2023-08-20T12:22:12;4.10;;;1.48;;
42904;SDS011;28550;51.228;4.528;2023-08-20T12:24:46;6.50;;;2.10;;
42904;SDS011;28550;51.228;4.528;2023-08-20T12:27:44;3.25;;;1.67;;
42904;SDS011;28550;51.228;4.528;2023-08-20T12:30:10;5.93;;;1.45;;
42904;SDS011;28550;51.228;4.528;2023-08-20T12:32:41;4.15;;;1.23;;
42904;SDS011;28550;51.228;4.528;2023-08-20T12:35:14;5.13;;;1.80;;
42904;SDS011;28550;51.228;4.528;2023-08-20T12:37:40;2.92;;;1.38;;
42904;SDS011;28550;51.228;4.528;2023-08-20T12:40:08;4.93;;;1.60;;
42904;SDS011;28550;51.228;4.528;2023-08-20T12:42:36;2.50;;;1.20;;
42904;SDS011;28550;51.228;4.528;2023-08-20T12:45:04;5.10;;;1.58;;
42904;SDS011;28550;51.228;4.528;2023-08-20T12:47:31;4.90;;;1.60;;
42904;SDS011;28550;51.228;4.528;2023-08-20T12:49:57;4.50;;;1.40;;
42904;SDS011;28550;51.228;4.528;2023-08-20T12:52:22;2.72;;;1.40;;
42904;SDS011;28550;51.228;4.528;2023-08-20T12:54:48;4.47;;;1.23;;
42904;SDS011;28550;51.228;4.528;2023-08-20T12:57:17;6.75;;;2.00;;
42904;SDS011;28550;51.228;4.528;2023-08-20T12:59:48;5.38;;;1.35;;
42904;SDS011;28550;51.228;4.528;2023-08-20T13:02:14;5.27;;;1.30;;
42904;SDS011;28550;51.228;4.528;2023-08-20T13:04:43;2.88;;;1.20;;
42904;SDS011;28550;51.228;4.528;2023-08-20T13:07:09;4.72;;;1.60;;
42904;SDS011;28550;51.228;4.528;2023-08-20T13:09:35;4.38;;;1.85;;
42904;SDS011;28550;51.228;4.528;2023-08-20T13:12:03;4.45;;;1.48;;
42904;SDS011;28550;51.228;4.528;2023-08-20T13:14:34;4.20;;;1.50;;
42904;SDS011;28550;51.228;4.528;2023-08-20T13:17:19;3.13;;;1.65;;
42904;SDS011;28550;51.228;4.528;2023-08-20T13:19:45;3.53;;;1.40;;
42904;SDS011;28550;51.228;4.528;2023-08-20T13:22:10;4.20;;;1.42;;
42904;SDS011;28550;51.228;4.528;2023-08-20T13:24:36;3.53;;;1.60;;
42904;SDS011;28550;51.228;4.528;2023-08-20T13:27:05;5.15;;;1.35;;
42904;SDS011;28550;51.228;4.528;2023-08-20T13:29:31;7.38;;;1.95;;
42904;SDS011;28550;51.228;4.528;2023-08-20T13:31:56;5.32;;;1.48;;
42904;SDS011;28550;51.228;4.528;2023-08-20T13:34:22;5.90;;;2.20;;
42904;SDS011;28550;51.228;4.528;2023-08-20T13:36:48;2.78;;;1.30;;
42904;SDS011;28550;51.228;4.528;2023-08-20T13:39:13;6.95;;;1.77;;
42904;SDS011;28550;51.228;4.528;2023-08-20T13:41:40;3.25;;;1.60;;
42904;SDS011;28550;51.228;4.528;2023-08-20T13:44:12;5.68;;;2.00;;
42904;SDS011;28550;51.228;4.528;2023-08-20T13:46:37;6.15;;;1.90;;
42904;SDS011;28550;51.228;4.528;2023-08-20T13:49:23;2.78;;;1.40;;
42904;SDS011;28550;51.228;4.528;2023-08-20T13:51:50;3.47;;;1.58;;
42904;SDS011;28550;51.228;4.528;2023-08-20T13:54:16;3.42;;;1.40;;
42904;SDS011;28550;51.228;4.528;2023-08-20T13:56:42;2.40;;;1.45;;
42904;SDS011;28550;51.228;4.528;2023-08-20T13:59:14;3.33;;;1.52;;
42904;SDS011;28550;51.228;4.528;2023-08-20T14:01:40;5.68;;;1.80;;
42904;SDS011;28550;51.228;4.528;2023-08-20T14:04:06;4.50;;;1.75;;
42904;SDS011;28550;51.228;4.528;2023-08-20T14:06:38;3.70;;;1.70;;
42904;SDS011;28550;51.228;4.528;2023-08-20T14:09:03;4.35;;;1.98;;
42904;SDS011;28550;51.228;4.528;2023-08-20T14:11:29;4.70;;;1.90;;
42904;SDS011;28550;51.228;4.528;2023-08-20T14:14:01;4.20;;;1.83;;
42904;SDS011;28550;51.228;4.528;2023-08-20T14:16:29;5.25;;;1.98;;
42904;SDS011;28550;51.228;4.528;2023-08-20T14:18:55;3.90;;;1.38;;
42904;SDS011;28550;51.228;4.528;2023-08-20T14:21:21;6.82;;;2.20;;
42904;SDS011;28550;51.228;4.528;2023-08-20T14:23:46;3.47;;;1.70;;
42904;SDS011;28550;51.228;4.528;2023-08-20T14:26:18;5.60;;;1.98;;
42904;SDS011;28550;51.228;4.528;2023-08-20T14:28:44;7.43;;;1.88;;
42904;SDS011;28550;51.228;4.528;2023-08-20T14:31:09;7.30;;;1.83;;
42904;SDS011;28550;51.228;4.528;2023-08-20T14:33:35;5.55;;;1.95;;
42904;SDS011;28550;51.228;4.528;2023-08-20T14:36:04;3.33;;;1.55;;
42904;SDS011;28550;51.228;4.528;2023-08-20T14:38:47;4.72;;;1.80;;
42904;SDS011;28550;51.228;4.528;2023-08-20T14:41:13;2.88;;;1.52;;
42904;SDS011;28550;51.228;4.528;2023-08-20T14:43:41;9.02;;;2.17;;
42904;SDS011;28550;51.228;4.528;2023-08-20T14:46:07;7.15;;;1.70;;
42904;SDS011;28550;51.228;4.528;2023-08-20T14:48:32;12.73;;;2.00;;
42904;SDS011;28550;51.228;4.528;2023-08-20T14:51:03;4.00;;;1.80;;
42904;SDS011;28550;51.228;4.528;2023-08-20T14:53:34;4.80;;;2.28;;
42904;SDS011;28550;51.228;4.528;2023-08-20T14:56:00;3.55;;;2.03;;
42904;SDS011;28550;51.228;4.528;2023-08-20T14:58:26;5.53;;;2.20;;